createdAt,value
2018-07-22T00:01:25.697Z,1.83
2018-07-22T00:03:57.417Z,1.53
2018-07-22T00:06:27.596Z,1.50
2018-07-22T00:08:57.806Z,1.77
2018-07-22T00:11:29.096Z,1.67
2018-07-22T00:14:01.347Z,1.80
2018-07-22T00:16:31.750Z,1.83
2018-07-22T00:19:02.524Z,1.70
2018-07-22T00:21:34.148Z,1.80
2018-07-22T00:24:04.916Z,1.90
2018-07-22T00:26:35.481Z,1.90
2018-07-22T00:29:04.761Z,1.60
2018-07-22T00:31:34.017Z,1.97
2018-07-22T00:34:02.511Z,1.80
2018-07-22T00:36:31.868Z,1.70
2018-07-22T00:39:00.427Z,1.80
2018-07-22T00:41:29.650Z,1.40
2018-07-22T00:43:58.122Z,1.70
2018-07-22T00:46:26.624Z,1.87
2018-07-22T00:48:55.374Z,1.70
2018-07-22T00:51:25.639Z,1.60
2018-07-22T00:53:55.429Z,2.10
2018-07-22T00:56:24.117Z,1.77
2018-07-22T00:58:52.725Z,1.90
2018-07-22T01:01:21.268Z,1.63
2018-07-22T01:03:49.953Z,1.53
2018-07-22T01:06:18.410Z,1.67
2018-07-22T01:08:46.925Z,1.90
2018-07-22T01:11:15.433Z,1.60
2018-07-22T01:13:43.925Z,1.70
2018-07-22T01:16:12.339Z,2.00
2018-07-22T01:18:40.760Z,1.90
2018-07-22T01:21:09.281Z,1.80
2018-07-22T01:23:38.052Z,1.73
2018-07-22T01:26:06.594Z,1.70
2018-07-22T01:28:35.069Z,1.77
2018-07-22T01:31:03.630Z,1.90
2018-07-22T01:33:32.364Z,1.73
2018-07-22T01:36:00.978Z,1.90
2018-07-22T01:38:29.492Z,1.90
2018-07-22T01:40:58.010Z,1.60
2018-07-22T01:43:26.418Z,1.40
2018-07-22T01:45:54.938Z,2.00
2018-07-22T01:48:23.426Z,1.93
2018-07-22T01:50:51.823Z,1.60
2018-07-22T01:53:20.275Z,1.80
2018-07-22T01:55:48.674Z,1.80
2018-07-22T01:58:17.944Z,1.60
2018-07-22T02:00:46.411Z,1.60
2018-07-22T02:03:14.925Z,1.90
2018-07-22T02:05:43.579Z,1.77
2018-07-22T02:08:12.194Z,1.80
2018-07-22T02:10:40.879Z,1.60
2018-07-22T02:13:09.439Z,1.73
2018-07-22T02:15:38.170Z,1.70
2018-07-22T02:18:07.457Z,1.80
2018-07-22T02:20:35.935Z,1.93
2018-07-22T02:23:04.501Z,1.67
2018-07-22T02:25:33.229Z,1.83
2018-07-22T02:28:01.788Z,2.00
2018-07-22T02:30:30.475Z,1.60
2018-07-22T02:32:58.998Z,1.90
2018-07-22T02:35:27.562Z,1.70
2018-07-22T02:37:56.058Z,1.87
2018-07-22T02:40:24.590Z,1.60
2018-07-22T02:42:53.069Z,1.80
2018-07-22T02:45:21.601Z,2.07
2018-07-22T02:47:50.168Z,1.93
2018-07-22T02:50:18.634Z,1.90
2018-07-22T02:52:47.233Z,1.70
2018-07-22T02:55:15.772Z,1.90
2018-07-22T02:57:44.294Z,1.90
2018-07-22T03:00:12.884Z,1.60
2018-07-22T03:02:41.089Z,1.90
2018-07-22T03:05:09.575Z,1.83
2018-07-22T03:07:38.297Z,1.43
2018-07-22T03:10:07.774Z,2.13
2018-07-22T03:12:36.296Z,1.67
2018-07-22T03:15:05.205Z,2.10
2018-07-22T03:17:34.007Z,1.93
2018-07-22T03:20:02.465Z,1.70
2018-07-22T03:22:30.917Z,1.70
2018-07-22T03:24:59.117Z,1.67
2018-07-22T03:27:27.732Z,1.97
2018-07-22T03:29:56.226Z,2.00
2018-07-22T03:32:24.724Z,1.63
2018-07-22T03:34:52.868Z,1.80
2018-07-22T03:37:21.428Z,1.63
2018-07-22T03:39:49.948Z,1.80
2018-07-22T03:42:18.778Z,1.60
2018-07-22T03:44:48.950Z,1.83
2018-07-22T03:47:17.477Z,1.77
2018-07-22T03:49:47.073Z,1.70
2018-07-22T03:52:16.065Z,1.70
2018-07-22T03:54:45.118Z,1.70
2018-07-22T03:57:14.017Z,1.50
2018-07-22T03:59:43.737Z,2.00
2018-07-22T04:02:12.461Z,1.87
2018-07-22T04:04:40.945Z,1.80
2018-07-22T04:07:09.495Z,1.90
2018-07-22T04:09:38.178Z,1.63
2018-07-22T04:12:06.653Z,1.80
2018-07-22T04:14:35.170Z,1.60
2018-07-22T04:17:03.745Z,1.60
2018-07-22T04:19:32.286Z,1.67
2018-07-22T04:22:00.844Z,2.10
2018-07-22T04:24:29.356Z,1.83
2018-07-22T04:26:58.008Z,1.70
2018-07-22T04:29:26.340Z,1.70
2018-07-22T04:31:54.939Z,1.63
2018-07-22T04:34:23.611Z,1.90
2018-07-22T04:36:52.069Z,1.90
2018-07-22T04:39:20.773Z,1.93
2018-07-22T04:41:49.434Z,1.50
2018-07-22T04:44:17.993Z,2.03
2018-07-22T04:46:46.617Z,1.47
2018-07-22T04:49:15.475Z,1.80
2018-07-22T04:51:44.070Z,1.70
2018-07-22T04:54:12.782Z,1.80
2018-07-22T04:56:41.297Z,1.67
2018-07-22T04:59:09.877Z,1.77
2018-07-22T05:01:38.489Z,1.70
2018-07-22T05:04:07.379Z,1.80
2018-07-22T05:06:35.987Z,1.87
2018-07-22T05:09:06.597Z,1.90
2018-07-22T05:11:35.265Z,1.60
2018-07-22T05:14:03.881Z,1.80
2018-07-22T05:16:32.766Z,1.70
2018-07-22T05:19:01.381Z,1.73
2018-07-22T05:21:29.986Z,2.00
2018-07-22T05:23:58.511Z,1.70
2018-07-22T05:26:27.237Z,1.90
2018-07-22T05:28:55.923Z,2.03
2018-07-22T05:31:24.443Z,1.40
2018-07-22T05:33:53.026Z,1.70
2018-07-22T05:36:21.665Z,1.60
2018-07-22T05:38:50.576Z,1.90
2018-07-22T05:41:19.210Z,1.63
2018-07-22T05:43:47.761Z,1.80
2018-07-22T05:46:16.309Z,1.83
2018-07-22T05:48:44.930Z,1.80
2018-07-22T05:51:13.480Z,1.50
2018-07-22T05:53:41.961Z,2.00
2018-07-22T05:56:10.729Z,2.00
2018-07-22T05:58:39.360Z,2.03
2018-07-22T06:01:08.230Z,1.93
2018-07-22T06:03:36.916Z,1.80
2018-07-22T06:06:05.958Z,1.77
2018-07-22T06:08:34.523Z,1.77
2018-07-22T06:11:03.085Z,1.87
2018-07-22T06:13:31.671Z,1.77
2018-07-22T06:16:00.161Z,2.00
2018-07-22T06:18:28.646Z,1.63
2018-07-22T06:20:57.181Z,2.00
2018-07-22T06:23:25.792Z,1.70
2018-07-22T06:25:54.394Z,1.80
2018-07-22T06:28:22.998Z,1.90
2018-07-22T06:30:51.549Z,1.70
2018-07-22T06:33:20.136Z,1.70
2018-07-22T06:35:49.004Z,1.73
2018-07-22T06:38:17.471Z,1.83
2018-07-22T06:40:46.068Z,1.60
2018-07-22T06:43:14.835Z,1.80
2018-07-22T06:45:43.484Z,1.80
2018-07-22T06:48:11.957Z,1.77
2018-07-22T06:50:40.954Z,2.10
2018-07-22T06:53:09.592Z,1.63
2018-07-22T06:55:38.673Z,1.97
2018-07-22T06:58:07.908Z,1.70
2018-07-22T07:00:36.546Z,1.90
2018-07-22T07:03:05.371Z,1.97
2018-07-22T07:05:33.891Z,1.90
2018-07-22T07:08:02.436Z,1.63
2018-07-22T07:10:30.856Z,1.60
2018-07-22T07:12:59.455Z,1.90
2018-07-22T07:15:28.341Z,1.80
2018-07-22T07:17:56.994Z,1.90
2018-07-22T07:20:25.711Z,1.50
2018-07-22T07:22:54.252Z,1.80
2018-07-22T07:25:22.800Z,1.90
2018-07-22T07:27:51.425Z,1.73
2018-07-22T07:30:20.094Z,1.67
2018-07-22T07:32:48.634Z,1.97
2018-07-22T07:35:17.206Z,1.70
2018-07-22T07:37:45.723Z,1.70
2018-07-22T07:40:14.017Z,1.77
2018-07-22T07:42:42.539Z,1.73
2018-07-22T07:45:11.296Z,1.67
2018-07-22T07:47:40.822Z,2.00
2018-07-22T07:50:09.337Z,1.90
2018-07-22T07:52:38.197Z,2.03
2018-07-22T07:55:06.929Z,1.50
2018-07-22T07:57:36.057Z,1.70
2018-07-22T08:00:05.457Z,1.77
2018-07-22T08:02:33.974Z,1.50
2018-07-22T08:05:02.543Z,1.87
2018-07-22T08:07:31.136Z,1.87
2018-07-22T08:09:59.817Z,1.73
2018-07-22T08:12:28.446Z,2.00
2018-07-22T08:14:57.017Z,1.90
2018-07-22T08:17:25.756Z,2.17
2018-07-22T08:19:54.522Z,1.80
2018-07-22T08:22:23.096Z,1.90
2018-07-22T08:24:51.740Z,2.10
2018-07-22T08:27:22.955Z,1.43
2018-07-22T08:29:51.848Z,1.83
2018-07-22T08:32:20.899Z,1.90
2018-07-22T08:34:50.908Z,1.80
2018-07-22T08:37:21.597Z,1.80
2018-07-22T08:39:50.334Z,1.83
2018-07-22T08:42:19.035Z,1.63
2018-07-22T08:44:47.633Z,2.00
2018-07-22T08:47:16.441Z,1.90
2018-07-22T08:49:44.942Z,1.80
2018-07-22T08:52:13.499Z,1.73
2018-07-22T08:54:42.060Z,1.90
2018-07-22T08:57:10.898Z,1.80
2018-07-22T08:59:39.686Z,1.77
2018-07-22T09:02:08.496Z,1.80
2018-07-22T09:04:38.090Z,1.80
2018-07-22T09:07:07.342Z,1.80
2018-07-22T09:09:35.992Z,1.70
2018-07-22T09:12:04.688Z,1.67
2018-07-22T09:14:33.294Z,2.20
2018-07-22T09:17:01.979Z,1.63
2018-07-22T09:19:30.609Z,1.63
2018-07-22T09:21:59.132Z,2.00
2018-07-22T09:24:27.830Z,1.70
2018-07-22T09:26:56.450Z,1.70
2018-07-22T09:29:24.991Z,1.77
2018-07-22T09:31:53.655Z,1.60
2018-07-22T09:34:22.177Z,1.80
2018-07-22T09:36:50.719Z,1.70
2018-07-22T09:39:19.348Z,1.67
2018-07-22T09:41:48.571Z,1.80
2018-07-22T09:44:17.537Z,1.70
2018-07-22T09:46:46.261Z,1.80
2018-07-22T09:49:17.016Z,1.90
2018-07-22T09:51:45.670Z,1.90
2018-07-22T09:54:14.420Z,1.97
2018-07-22T09:56:43.073Z,1.67
2018-07-22T09:59:12.245Z,1.80
2018-07-22T10:01:41.402Z,1.80
2018-07-22T10:04:09.942Z,1.70
2018-07-22T10:06:38.630Z,1.70
2018-07-22T10:09:09.525Z,2.00
2018-07-22T10:11:38.324Z,1.80
2018-07-22T10:14:07.373Z,2.13
2018-07-22T10:16:35.909Z,1.67
2018-07-22T10:19:04.587Z,2.03
2018-07-22T10:21:33.094Z,2.00
2018-07-22T10:24:01.750Z,2.00
2018-07-22T10:26:30.553Z,1.80
2018-07-22T10:28:59.326Z,1.70
2018-07-22T10:31:27.977Z,1.97
2018-07-22T10:33:56.797Z,1.70
2018-07-22T10:36:25.307Z,2.17
2018-07-22T10:38:54.032Z,1.97
2018-07-22T10:41:23.660Z,1.70
2018-07-22T10:43:52.545Z,1.70
2018-07-22T10:46:21.165Z,1.93
2018-07-22T10:48:49.769Z,1.83
2018-07-22T10:51:18.357Z,2.10
2018-07-22T10:53:47.127Z,2.00
2018-07-22T10:56:15.674Z,2.10
2018-07-22T10:58:44.313Z,2.10
2018-07-22T11:01:13.017Z,2.07
2018-07-22T11:03:43.460Z,2.23
2018-07-22T11:06:12.130Z,1.83
2018-07-22T11:08:40.877Z,1.77
2018-07-22T11:11:09.900Z,1.80
2018-07-22T11:13:38.706Z,1.60
2018-07-22T11:16:07.692Z,2.10
2018-07-22T11:18:36.264Z,2.07
2018-07-22T11:21:04.867Z,1.87
2018-07-22T11:23:33.574Z,1.80
2018-07-22T11:26:02.389Z,2.07
2018-07-22T11:28:31.096Z,2.00
2018-07-22T11:30:59.871Z,1.90
2018-07-22T11:33:28.511Z,1.83
2018-07-22T11:35:57.023Z,1.83
2018-07-22T11:38:25.674Z,2.17
2018-07-22T11:40:54.252Z,2.10
2018-07-22T11:43:22.718Z,2.20
2018-07-22T11:45:51.472Z,1.80
2018-07-22T11:48:20.276Z,2.00
2018-07-22T11:50:49.050Z,2.00
2018-07-22T11:53:17.695Z,2.30
2018-07-22T11:55:46.309Z,1.90
2018-07-22T11:58:15.010Z,2.10
2018-07-22T12:00:48.049Z,2.20
2018-07-22T12:03:19.206Z,2.00
2018-07-22T12:05:47.860Z,2.00
2018-07-22T12:08:18.052Z,2.03
2018-07-22T12:10:46.533Z,1.70
2018-07-22T12:13:14.963Z,2.13
2018-07-22T12:15:43.366Z,1.90
2018-07-22T12:18:11.930Z,2.20
2018-07-22T12:20:40.821Z,2.00
2018-07-22T12:23:09.811Z,1.90
2018-07-22T12:25:38.480Z,2.10
2018-07-22T12:28:07.064Z,1.83
2018-07-22T12:30:35.525Z,1.87
2018-07-22T12:33:04.251Z,2.03
2018-07-22T12:35:32.738Z,2.03
2018-07-22T12:38:01.329Z,2.13
2018-07-22T12:40:29.886Z,2.30
2018-07-22T12:42:58.390Z,1.93
2018-07-22T12:45:26.986Z,2.20
2018-07-22T12:47:55.566Z,2.07
2018-07-22T12:50:23.914Z,2.03
2018-07-22T12:52:52.487Z,2.30
2018-07-22T12:55:21.077Z,2.00
2018-07-22T12:57:49.891Z,2.10
2018-07-22T13:00:18.414Z,2.13
2018-07-22T13:02:46.940Z,1.80
2018-07-22T13:05:15.573Z,2.30
2018-07-22T13:07:44.128Z,2.40
2018-07-22T13:10:12.838Z,2.30
2018-07-22T13:12:41.409Z,2.40
2018-07-22T13:15:10.389Z,2.10
2018-07-22T13:17:39.685Z,2.43
2018-07-22T13:20:09.407Z,2.27
2018-07-22T13:22:39.629Z,2.10
2018-07-22T13:25:11.021Z,2.17
2018-07-22T13:27:42.342Z,2.17
2018-07-22T13:30:13.124Z,1.90
2018-07-22T13:32:44.372Z,2.23
2018-07-22T13:35:14.860Z,2.73
2018-07-22T13:37:45.091Z,2.70
2018-07-22T13:40:15.247Z,2.80
2018-07-22T13:42:46.935Z,2.80
2018-07-22T13:45:17.162Z,2.57
2018-07-22T13:47:47.447Z,3.70
2018-07-22T13:50:18.790Z,2.80
2018-07-22T13:52:48.953Z,2.70
2018-07-22T13:55:18.969Z,3.40
2018-07-22T13:57:49.905Z,2.60
2018-07-22T14:00:20.306Z,2.90
2018-07-22T14:02:50.670Z,2.90
2018-07-22T14:05:21.755Z,2.67
2018-07-22T14:07:51.051Z,3.10
2018-07-22T14:10:21.316Z,3.10
2018-07-22T14:12:50.724Z,2.77
2018-07-22T14:15:21.095Z,2.90
2018-07-22T14:17:51.604Z,3.03
2018-07-22T14:20:21.343Z,2.50
2018-07-22T14:22:51.521Z,2.70
2018-07-22T14:25:21.040Z,3.57
2018-07-22T14:27:52.013Z,2.53
2018-07-22T14:30:23.850Z,2.97
2018-07-22T14:32:56.690Z,2.90
2018-07-22T14:35:28.263Z,2.73
2018-07-22T14:37:58.716Z,2.97
2018-07-22T14:40:27.662Z,2.90
2018-07-22T14:42:56.520Z,3.07
2018-07-22T14:45:25.141Z,2.53
2018-07-22T14:47:53.727Z,2.93
2018-07-22T14:50:22.224Z,2.80
2018-07-22T14:52:50.950Z,2.87
2018-07-22T14:55:19.828Z,3.07
2018-07-22T14:57:48.758Z,2.80
2018-07-22T15:00:17.673Z,2.53
2018-07-22T15:02:49.694Z,2.50
2018-07-22T15:05:19.903Z,3.10
2018-07-22T15:07:50.994Z,2.60
2018-07-22T15:10:21.441Z,2.87
2018-07-22T15:12:50.339Z,2.73
2018-07-22T15:15:20.040Z,2.70
2018-07-22T15:17:49.712Z,3.20
2018-07-22T15:20:18.508Z,2.80
2018-07-22T15:22:47.533Z,2.73
2018-07-22T15:25:16.202Z,2.97
2018-07-22T15:27:44.993Z,2.77
2018-07-22T15:30:13.874Z,2.80
2018-07-22T15:32:42.729Z,2.80
2018-07-22T15:35:12.350Z,3.00
2018-07-22T15:37:42.618Z,3.30
2018-07-22T15:40:11.698Z,2.90
2018-07-22T15:42:41.845Z,2.90
2018-07-22T15:45:11.513Z,2.47
2018-07-22T15:47:41.338Z,2.90
2018-07-22T15:50:11.278Z,2.53
2018-07-22T15:52:40.782Z,2.80
2018-07-22T15:55:10.723Z,3.10
2018-07-22T15:57:40.969Z,2.50
2018-07-22T16:00:10.422Z,3.17
2018-07-22T16:02:40.048Z,3.17
2018-07-22T16:05:08.482Z,2.83
2018-07-22T16:07:37.607Z,3.20
2018-07-22T16:10:06.268Z,2.83
2018-07-22T16:12:34.815Z,2.90
2018-07-22T16:15:03.631Z,3.00
2018-07-22T16:17:32.283Z,3.20
2018-07-22T16:20:00.551Z,2.90
2018-07-22T16:22:29.198Z,3.00
2018-07-22T16:24:57.875Z,2.70
2018-07-22T16:27:26.535Z,3.00
2018-07-22T16:29:55.138Z,2.43
2018-07-22T16:32:23.724Z,3.03
2018-07-22T16:34:52.270Z,2.50
2018-07-22T16:37:21.069Z,2.80
2018-07-22T16:39:49.846Z,3.00
2018-07-22T16:42:18.993Z,2.77
2018-07-22T16:44:47.785Z,3.10
2018-07-22T16:47:16.410Z,2.30
2018-07-22T16:49:45.259Z,2.83
2018-07-22T16:52:13.955Z,3.13
2018-07-22T16:54:42.869Z,2.40
2018-07-22T16:57:11.872Z,3.03
2018-07-22T16:59:40.791Z,3.60
2018-07-22T17:02:09.658Z,3.00
2018-07-22T17:04:38.470Z,3.00
2018-07-22T17:07:08.217Z,2.97
2018-07-22T17:09:37.298Z,2.97
2018-07-22T17:12:06.123Z,3.20
2018-07-22T17:14:34.793Z,2.83
2018-07-22T17:17:03.193Z,3.07
2018-07-22T17:19:31.754Z,2.70
2018-07-22T17:22:00.378Z,2.70
2018-07-22T17:24:29.957Z,3.17
2018-07-22T17:26:58.592Z,2.97
2018-07-22T17:29:27.484Z,3.03
2018-07-22T17:31:55.918Z,2.73
2018-07-22T17:34:24.790Z,2.60
2018-07-22T17:36:53.575Z,2.93
2018-07-22T17:39:22.690Z,2.83
2018-07-22T17:41:52.575Z,2.80
2018-07-22T17:44:21.496Z,2.87
2018-07-22T17:46:50.095Z,2.80
2018-07-22T17:49:18.308Z,2.87
2018-07-22T17:51:46.894Z,2.90
2018-07-22T17:54:15.497Z,3.13
2018-07-22T17:56:44.105Z,3.03
2018-07-22T17:59:12.763Z,3.00
2018-07-22T18:01:41.587Z,2.77
2018-07-22T18:04:10.146Z,3.13
2018-07-22T18:06:39.113Z,3.10
2018-07-22T18:09:09.097Z,3.00
2018-07-22T18:11:38.162Z,2.70
2018-07-22T18:14:06.743Z,2.97
2018-07-22T18:16:35.633Z,2.70
2018-07-22T18:19:04.317Z,2.83
2018-07-22T18:21:33.032Z,2.80
2018-07-22T18:24:01.654Z,2.73
2018-07-22T18:26:30.940Z,3.17
2018-07-22T18:28:59.834Z,2.60
2018-07-22T18:31:28.579Z,3.00
2018-07-22T18:33:57.054Z,3.20
2018-07-22T18:36:25.475Z,3.30
2018-07-22T18:38:53.767Z,2.93
2018-07-22T18:41:22.189Z,2.90
2018-07-22T18:43:50.712Z,2.90
2018-07-22T18:46:19.301Z,2.93
2018-07-22T18:48:47.752Z,2.57
2018-07-22T18:51:16.454Z,2.80
2018-07-22T18:53:45.102Z,2.50
2018-07-22T18:56:13.754Z,2.90
2018-07-22T18:58:42.316Z,3.10
2018-07-22T19:01:11.048Z,2.90
2018-07-22T19:03:40.276Z,2.70
2018-07-22T19:06:08.861Z,2.97
2018-07-22T19:08:37.226Z,2.70
2018-07-22T19:11:06.148Z,2.83
2018-07-22T19:13:34.860Z,2.60
2018-07-22T19:16:03.570Z,2.90
2018-07-22T19:18:32.133Z,2.90
2018-07-22T19:21:00.766Z,2.90
2018-07-22T19:23:29.664Z,2.73
2018-07-22T19:25:58.243Z,2.70
2018-07-22T19:28:26.782Z,2.97
2018-07-22T19:30:55.311Z,2.87
2018-07-22T19:33:24.037Z,2.70
2018-07-22T19:35:52.807Z,2.83
2018-07-22T19:38:21.309Z,3.10
2018-07-22T19:40:49.940Z,2.87
2018-07-22T19:43:18.546Z,3.03
2018-07-22T19:45:47.245Z,3.10
2018-07-22T19:48:15.799Z,2.90
2018-07-22T19:50:44.641Z,2.90
2018-07-22T19:53:13.308Z,2.73
2018-07-22T19:55:41.870Z,2.70
2018-07-22T19:58:11.398Z,2.90
2018-07-22T20:00:41.879Z,2.87
2018-07-22T20:03:11.426Z,2.43
2018-07-22T20:05:40.569Z,3.30
2018-07-22T20:08:09.839Z,2.57
2018-07-22T20:10:38.946Z,2.40
2018-07-22T20:13:09.208Z,2.60
2018-07-22T20:15:39.555Z,2.70
2018-07-22T20:18:08.592Z,2.50
2018-07-22T20:20:38.113Z,2.97
2018-07-22T20:23:06.619Z,2.83
2018-07-22T20:25:36.467Z,2.87
2018-07-22T20:28:06.576Z,2.43
2018-07-22T20:30:36.310Z,2.40
2018-07-22T20:33:04.963Z,3.10
2018-07-22T20:35:33.551Z,2.47
2018-07-22T20:38:02.222Z,2.30
2018-07-22T20:40:31.166Z,2.87
2018-07-22T20:43:01.240Z,2.70
2018-07-22T20:45:29.772Z,2.97
2018-07-22T20:47:59.130Z,2.30
2018-07-22T20:50:28.687Z,2.43
2018-07-22T20:52:58.262Z,2.73
2018-07-22T20:55:26.836Z,3.07
2018-07-22T20:57:55.838Z,3.00
2018-07-22T21:00:25.595Z,2.80
2018-07-22T21:02:54.861Z,3.00
2018-07-22T21:05:24.554Z,2.30
2018-07-22T21:07:54.536Z,3.00
2018-07-22T21:10:23.726Z,2.40
2018-07-22T21:13:04.137Z,2.23
2018-07-22T21:15:33.403Z,2.50
2018-07-22T21:18:03.238Z,2.40
2018-07-22T21:20:31.823Z,2.90
2018-07-22T21:23:01.157Z,2.40
2018-07-22T21:25:31.039Z,2.30
2018-07-22T21:28:00.508Z,2.67
2018-07-22T21:30:29.267Z,2.70
2018-07-22T21:32:59.048Z,2.33
2018-07-22T21:35:27.978Z,2.93
2018-07-22T21:37:57.623Z,2.27
2018-07-22T21:40:27.801Z,2.63
2018-07-22T21:42:57.735Z,2.67
2018-07-22T21:45:26.995Z,2.50
2018-07-22T21:47:56.982Z,2.87
2018-07-22T21:50:27.309Z,2.43
2018-07-22T21:52:55.784Z,2.80
2018-07-22T21:55:26.232Z,2.40
2018-07-22T21:57:55.991Z,2.70
2018-07-22T22:00:32.784Z,2.70
2018-07-22T22:03:03.079Z,2.40
2018-07-22T22:05:33.082Z,2.27
2018-07-22T22:08:02.462Z,2.17
2018-07-22T22:10:31.037Z,2.37
2018-07-22T22:12:59.506Z,2.67
2018-07-22T22:15:30.172Z,2.63
2018-07-22T22:18:02.245Z,2.40
2018-07-22T22:20:31.108Z,2.47
2018-07-22T22:23:01.019Z,2.30
2018-07-22T22:25:29.691Z,2.10
2018-07-22T22:27:58.493Z,2.77
2018-07-22T22:30:27.222Z,2.63
2018-07-22T22:32:56.263Z,2.60
2018-07-22T22:35:24.869Z,2.40
2018-07-22T22:37:55.102Z,2.30
2018-07-22T22:40:23.957Z,2.90
2018-07-22T22:42:53.268Z,2.47
2018-07-22T22:45:22.363Z,2.23
2018-07-22T22:47:50.874Z,2.37
2018-07-22T22:50:19.174Z,2.17
2018-07-22T22:52:49.203Z,2.90
2018-07-22T22:55:19.532Z,2.40
2018-07-22T22:57:59.361Z,2.40
2018-07-22T23:00:29.651Z,2.50
2018-07-22T23:02:59.351Z,2.30
2018-07-22T23:05:29.372Z,2.47
2018-07-22T23:08:00.331Z,2.40
2018-07-22T23:10:28.808Z,2.63
2018-07-22T23:12:57.396Z,2.60
2018-07-22T23:15:27.171Z,2.40
2018-07-22T23:17:56.624Z,2.20
2018-07-22T23:20:25.343Z,2.33
2018-07-22T23:22:55.005Z,2.77
2018-07-22T23:25:25.023Z,2.20
2018-07-22T23:27:58.314Z,2.60
2018-07-22T23:30:26.750Z,2.30
2018-07-22T23:32:56.766Z,2.57
2018-07-22T23:35:25.422Z,2.77
2018-07-22T23:37:54.107Z,2.70
2018-07-22T23:40:23.418Z,2.40
2018-07-22T23:42:52.165Z,2.67
2018-07-22T23:45:22.058Z,2.17
2018-07-22T23:47:50.593Z,2.80
2018-07-22T23:50:18.988Z,2.00
2018-07-22T23:52:48.097Z,2.80
2018-07-22T23:55:17.948Z,2.47
2018-07-22T23:57:47.793Z,2.30
